Saguache, CO

12:48 AM MDT on April 24, 2017 (GMT -0600)
Saguache | | Change Station
Active Advisory: Fire Weather Warning

Elev 7825 ft 38.10 °N, 106.17 °W | Updated 12 minutes ago

Clear
Clear
37 °F
Feels Like 33 °F
N
6
Wind Variable Wind from NNW

Today
High -- | Low -- °F
--% Chance of Precip.
Yesterday
High -- | Low -- °F
Precip. -- in
Pressure 29.88 in
Visibility 10.0 miles
Clouds Clear
Windchill 33 °F
Dew Point 19 °F
Humidity 48%
Rainfall 0.00 in
Snow Depth Not available.
6:16 AM 7:49 PM
Waning Crescent, 7% visible
METAR K04V 240636Z AUTO 33005KT 10SM CLR 03/M07 A2988 RMK AO2
Pressure 29.88 in
Visibility 10.0 miles
Clouds Clear
Windchill 33 °F
Dew Point 19 °F
Humidity 48%
Rainfall 0.00 in
Snow Depth Not available.
6:16 AM 7:49 PM
Waning Crescent, 7% visible
METAR K04V 240636Z AUTO 33005KT 10SM CLR 03/M07 A2988 RMK AO2

Get Your Daily Forecast Email!

Thanks for signing up!

Be on the lookout for a verification email in your inbox.

You'll start receiving severe weather alerts in your inbox..

×

10-Day Weather Forecast

Almanac

Astronomy

Apr. 24, 2017 Rise Set
Actual Time
Civil Twilight
Nautical Twilight
Astronomical Twilight
Moon
Length of Visible Light
Length of Day
Tomorrow will be .
, % of the Moon is Illuminated

Today's Extremes

State Highs State Lows

Community

WunderPhotos

WunderBlog® & News

Nearby

Air Quality

  Air Quality AQ Index Pollutant
Not available.

Snow Depth

Station Depth Elevation

Earthquake Activity

City Distance Mag. Time & Date
Minimum magnitude displayed is 2.5.

Coastal Water Temperatures

Place Temperature

Stations

Nearby Weather Stations

Station Location Temp. Windchill Dew Point Humidity Wind Precip. Elev Updated Type
                   

Watches & Warnings

Fire Weather Warning
Issued: 2:50 PM MDT Apr. 23, 2017 – National Weather Service

... Red flag warning remains in effect from noon to 7 PM MDT
Monday for gusty winds... low relative humidity and dry fuels for
fire weather zone 224...

* affected area... fire weather zone 224.

* Winds... west 20 to 30 mph with gusts up to 45 mph.

* Relative humidity... as low as 12 percent.

* Impacts... conditions will be favorable for the rapid ignition,
growth and spread of fires.

Precautionary/preparedness actions...

A red flag warning means that critical fire weather conditions
are either occurring now, or will shortly. A combination of
strong winds, low relative humidity, and warm temperatures can
contribute to extreme fire behavior.